createdAt,value
2023-01-28T00:00:24.675Z,73.86
2023-01-28T00:02:57.347Z,73.57
2023-01-28T00:05:30.113Z,73.90
2023-01-28T00:08:04.273Z,73.78
2023-01-28T00:10:39.638Z,73.58
2023-01-28T00:13:13.379Z,73.70
2023-01-28T00:15:46.008Z,73.54
2023-01-28T00:18:18.805Z,73.27
2023-01-28T00:20:57.067Z,73.22
2023-01-28T00:23:32.543Z,73.80
2023-01-28T00:26:06.254Z,73.64
2023-01-28T00:28:38.785Z,73.66
2023-01-28T00:31:12.520Z,73.67
2023-01-28T00:33:45.570Z,73.40
2023-01-28T00:36:19.128Z,73.64
2023-01-28T00:38:54.058Z,74.10
2023-01-28T00:41:27.370Z,73.62
2023-01-28T00:44:00.494Z,73.64
2023-01-28T00:46:35.096Z,73.88
2023-01-28T00:49:07.626Z,73.79
2023-01-28T00:51:40.463Z,74.26
2023-01-28T00:54:15.553Z,74.10
2023-01-28T00:56:48.227Z,73.97
2023-01-28T00:59:20.920Z,74.00
2023-01-28T01:01:54.957Z,74.00
2023-01-28T01:04:35.241Z,73.83
2023-01-28T01:07:12.231Z,74.00
2023-01-28T01:09:46.266Z,74.09
2023-01-28T01:12:19.613Z,73.86
2023-01-28T01:14:52.280Z,73.68
2023-01-28T01:17:25.098Z,73.87
2023-01-28T01:19:57.762Z,73.66
2023-01-28T01:22:33.880Z,73.79
2023-01-28T01:25:09.959Z,73.64
2023-01-28T01:27:43.073Z,73.57
2023-01-28T01:30:16.404Z,73.32
2023-01-28T01:32:49.439Z,73.53
2023-01-28T01:35:21.975Z,73.66
2023-01-28T01:37:54.751Z,73.72
2023-01-28T01:40:29.681Z,74.00
2023-01-28T01:43:05.260Z,74.44
2023-01-28T01:45:37.838Z,74.01
2023-01-28T01:48:15.629Z,74.28
2023-01-28T01:50:52.852Z,74.29
2023-01-28T01:53:29.923Z,74.37
2023-01-28T01:56:07.757Z,73.93
2023-01-28T01:58:41.299Z,74.00
2023-01-28T02:01:14.816Z,74.01
2023-01-28T02:03:53.217Z,73.87
2023-01-28T02:06:26.417Z,73.75
2023-01-28T02:08:59.534Z,74.28
2023-01-28T02:11:35.039Z,74.27
2023-01-28T02:14:07.871Z,74.31
2023-01-28T02:16:40.694Z,74.30
2023-01-28T02:19:15.139Z,74.03
2023-01-28T02:22:00.388Z,74.11
2023-01-28T02:24:46.635Z,73.95
2023-01-28T02:27:25.626Z,74.31
2023-01-28T02:30:04.358Z,74.03
2023-01-28T02:32:43.869Z,74.03
2023-01-28T02:35:19.177Z,73.95
2023-01-28T02:37:55.004Z,73.94
2023-01-28T02:40:30.619Z,73.97
2023-01-28T02:43:05.291Z,74.08
2023-01-28T02:45:53.425Z,74.26
2023-01-28T02:48:26.523Z,74.17
2023-01-28T02:51:02.840Z,74.16
2023-01-28T02:53:44.034Z,74.51
2023-01-28T02:56:22.017Z,73.96
2023-01-28T02:58:59.663Z,74.22
2023-01-28T03:01:37.781Z,73.85
2023-01-28T03:04:13.517Z,73.57
2023-01-28T03:06:48.945Z,73.61
2023-01-28T03:09:22.596Z,73.61
2023-01-28T03:12:14.542Z,73.93
2023-01-28T03:15:07.590Z,73.87
2023-01-28T03:18:02.224Z,74.03
2023-01-28T03:20:56.829Z,74.18
2023-01-28T03:23:51.154Z,73.91
2023-01-28T03:26:43.248Z,73.72
2023-01-28T03:29:34.088Z,73.75
2023-01-28T03:32:29.475Z,74.23
2023-01-28T03:35:21.397Z,73.59
2023-01-28T03:37:54.550Z,73.95
2023-01-28T03:40:29.403Z,73.95
2023-01-28T03:43:02.109Z,73.67
2023-01-28T03:45:39.377Z,73.92
2023-01-28T03:48:12.380Z,73.85
2023-01-28T03:50:46.589Z,73.95
2023-01-28T03:53:19.963Z,73.96
2023-01-28T03:56:03.135Z,73.98
2023-01-28T03:58:53.140Z,73.90
2023-01-28T04:01:26.473Z,74.12
2023-01-28T04:04:01.904Z,74.07
2023-01-28T04:06:36.107Z,74.10
2023-01-28T04:09:34.431Z,74.08
2023-01-28T04:12:28.167Z,74.02
2023-01-28T04:15:00.913Z,73.89
2023-01-28T04:17:36.725Z,73.97
2023-01-28T04:20:12.466Z,74.00
2023-01-28T04:22:46.588Z,73.94
2023-01-28T04:25:20.753Z,74.14
2023-01-28T04:27:54.386Z,74.33
2023-01-28T04:30:29.221Z,74.06
2023-01-28T04:33:28.994Z,74.01
2023-01-28T04:36:07.446Z,74.20
2023-01-28T04:38:51.535Z,74.48
2023-01-28T04:41:34.508Z,74.38
2023-01-28T04:44:13.862Z,74.30
2023-01-28T04:47:12.871Z,74.02
2023-01-28T04:50:10.578Z,73.94
2023-01-28T04:52:49.189Z,74.18
2023-01-28T04:55:30.272Z,74.35
2023-01-28T04:58:03.552Z,74.37
2023-01-28T05:00:36.967Z,74.03
2023-01-28T05:03:09.968Z,73.92
2023-01-28T05:05:42.782Z,74.58
2023-01-28T05:08:43.195Z,74.37
2023-01-28T05:11:17.316Z,74.12
2023-01-28T05:13:53.299Z,74.02
2023-01-28T05:16:26.601Z,74.11
2023-01-28T05:18:59.399Z,74.18
2023-01-28T05:21:38.428Z,74.39
2023-01-28T05:24:15.841Z,74.43
2023-01-28T05:26:51.517Z,74.56
2023-01-28T05:29:24.342Z,74.44
2023-01-28T05:31:57.152Z,73.97
2023-01-28T05:34:29.899Z,73.87
2023-01-28T05:37:03.735Z,74.18
2023-01-28T05:39:38.651Z,73.99
2023-01-28T05:42:12.923Z,74.12
2023-01-28T05:44:50.675Z,74.30
2023-01-28T05:47:45.524Z,74.04
2023-01-28T05:50:37.523Z,74.32
2023-01-28T05:53:17.706Z,74.21
2023-01-28T05:55:51.854Z,74.36
2023-01-28T05:58:27.465Z,74.39
2023-01-28T06:01:00.090Z,74.54
2023-01-28T06:03:41.046Z,74.48
2023-01-28T06:06:13.568Z,74.21
2023-01-28T06:08:46.302Z,74.19
2023-01-28T06:11:23.076Z,74.00
2023-01-28T06:14:00.400Z,73.96
2023-01-28T06:16:44.900Z,74.08
2023-01-28T06:19:32.241Z,74.57
2023-01-28T06:22:04.925Z,74.48
2023-01-28T06:24:38.405Z,74.43
2023-01-28T06:27:11.812Z,74.37
2023-01-28T06:29:45.786Z,74.84
2023-01-28T06:32:18.517Z,74.37
2023-01-28T06:34:52.383Z,74.75
2023-01-28T06:37:26.277Z,74.81
2023-01-28T06:39:59.134Z,74.68
2023-01-28T06:42:32.000Z,74.48
2023-01-28T06:45:06.410Z,74.84
2023-01-28T06:47:39.622Z,74.21
2023-01-28T06:50:12.718Z,74.36
2023-01-28T06:52:45.396Z,74.16
2023-01-28T06:55:18.217Z,74.07
2023-01-28T06:57:50.956Z,74.63
2023-01-28T07:00:25.288Z,74.65
2023-01-28T07:02:58.154Z,74.50
2023-01-28T07:05:30.876Z,74.35
2023-01-28T07:08:03.611Z,74.77
2023-01-28T07:10:36.251Z,74.52
2023-01-28T07:13:08.907Z,74.37
2023-01-28T07:15:43.113Z,74.52
2023-01-28T07:18:16.116Z,74.38
2023-01-28T07:20:48.940Z,74.47
2023-01-28T07:23:21.805Z,74.25
2023-01-28T07:25:54.613Z,74.33
2023-01-28T07:28:27.709Z,74.03
2023-01-28T07:31:01.937Z,74.37
2023-01-28T07:33:34.872Z,74.79
2023-01-28T07:36:08.156Z,74.44
2023-01-28T07:38:40.743Z,74.31
2023-01-28T07:41:13.407Z,74.55
2023-01-28T07:43:46.540Z,74.29
2023-01-28T07:46:21.642Z,74.42
2023-01-28T07:48:54.397Z,74.82
2023-01-28T07:51:27.237Z,74.68
2023-01-28T07:53:59.965Z,74.83
2023-01-28T07:56:32.738Z,74.80
2023-01-28T07:59:08.611Z,74.66
2023-01-28T08:01:43.734Z,74.91
2023-01-28T08:04:19.097Z,74.69
2023-01-28T08:06:52.342Z,74.79
2023-01-28T08:09:25.062Z,74.97
2023-01-28T08:11:57.754Z,74.68
2023-01-28T08:14:30.760Z,74.82
2023-01-28T08:17:04.924Z,74.82
2023-01-28T08:19:40.371Z,74.55
2023-01-28T08:22:13.098Z,74.60
2023-01-28T08:24:45.832Z,74.90
2023-01-28T08:27:20.528Z,74.66
2023-01-28T08:29:54.154Z,74.66
2023-01-28T08:32:29.696Z,74.75
2023-01-28T08:35:02.373Z,73.47
2023-01-28T08:37:35.199Z,74.15
2023-01-28T08:40:08.716Z,74.45
2023-01-28T08:42:41.670Z,74.68
2023-01-28T08:45:14.664Z,74.66
2023-01-28T08:47:52.717Z,74.59
2023-01-28T08:50:27.342Z,74.65
2023-01-28T08:53:00.854Z,74.84
2023-01-28T08:55:34.432Z,74.58
2023-01-28T08:58:11.904Z,74.67
2023-01-28T09:00:45.188Z,74.98
2023-01-28T09:03:20.889Z,74.51
2023-01-28T09:05:53.730Z,74.64
2023-01-28T09:08:26.602Z,74.60
2023-01-28T09:10:59.783Z,74.75
2023-01-28T09:13:32.591Z,74.51
2023-01-28T09:16:06.385Z,74.61
2023-01-28T09:18:40.783Z,74.77
2023-01-28T09:21:13.567Z,74.74
2023-01-28T09:23:46.333Z,74.80
2023-01-28T09:26:19.571Z,74.75
2023-01-28T09:28:54.873Z,74.77
2023-01-28T09:31:27.777Z,74.70
2023-01-28T09:34:02.229Z,74.64
2023-01-28T09:36:35.074Z,74.77
2023-01-28T09:39:08.265Z,74.75
2023-01-28T09:41:50.388Z,74.64
2023-01-28T09:44:32.962Z,74.71
2023-01-28T09:47:10.104Z,74.68
2023-01-28T09:49:48.255Z,74.64
2023-01-28T09:52:22.943Z,74.45
2023-01-28T09:54:59.783Z,74.67
2023-01-28T09:57:37.829Z,74.27
2023-01-28T10:00:15.710Z,74.34
2023-01-28T10:02:57.385Z,74.83
2023-01-28T10:05:39.918Z,74.64
2023-01-28T10:08:21.705Z,72.53
2023-01-28T10:11:03.448Z,72.77
2023-01-28T10:13:44.597Z,73.86
2023-01-28T10:19:41.291Z,73.76
2023-01-28T10:22:17.953Z,73.58
2023-01-28T10:24:54.095Z,73.40
2023-01-28T10:27:31.133Z,73.89
2023-01-28T10:30:17.238Z,73.73
2023-01-28T10:32:53.336Z,73.16
2023-01-28T10:35:26.617Z,72.84
2023-01-28T10:38:06.572Z,72.31
2023-01-28T10:40:39.955Z,72.87
2023-01-28T10:43:12.717Z,73.08
2023-01-28T10:45:53.225Z,72.51
2023-01-28T10:48:30.382Z,75.48
2023-01-28T10:51:28.746Z,73.83
2023-01-28T10:54:23.610Z,73.61
2023-01-28T10:57:22.443Z,74.14
2023-01-28T10:59:55.444Z,74.10
2023-01-28T11:02:32.467Z,74.00
2023-01-28T11:05:07.037Z,73.63
2023-01-28T11:07:40.090Z,74.58
2023-01-28T11:10:32.403Z,74.49
2023-01-28T11:13:17.336Z,74.13
2023-01-28T11:15:51.075Z,68.36
2023-01-28T11:18:30.491Z,70.56
2023-01-28T11:21:04.889Z,73.65
2023-01-28T11:23:39.838Z,75.33
2023-01-28T11:26:35.456Z,75.21
2023-01-28T11:29:22.034Z,74.92
2023-01-28T11:31:56.985Z,71.30
2023-01-28T11:34:31.632Z,72.56
2023-01-28T11:37:14.777Z,71.52
2023-01-28T11:40:01.916Z,73.62
2023-01-28T11:42:34.927Z,73.14
2023-01-28T11:45:16.567Z,71.97
2023-01-28T11:47:56.462Z,72.22
2023-01-28T11:50:38.995Z,72.04
2023-01-28T11:53:26.907Z,71.70
2023-01-28T11:56:10.254Z,72.24
2023-01-28T11:58:51.331Z,72.22
2023-01-28T12:01:37.246Z,72.05
2023-01-28T12:04:22.478Z,72.52
2023-01-28T12:07:02.996Z,72.19
2023-01-28T12:09:44.288Z,72.32
2023-01-28T12:12:26.242Z,72.57
2023-01-28T12:15:07.313Z,72.73
2023-01-28T12:17:52.333Z,73.42
2023-01-28T12:20:29.881Z,72.98
2023-01-28T12:23:12.545Z,73.15
2023-01-28T12:26:00.255Z,70.75
2023-01-28T12:28:39.695Z,65.82
2023-01-28T12:31:30.087Z,70.48
2023-01-28T12:34:19.094Z,74.04
2023-01-28T12:36:57.527Z,72.31
2023-01-28T12:39:41.960Z,72.67
2023-01-28T12:42:17.297Z,74.67
2023-01-28T12:44:53.385Z,75.47
2023-01-28T12:47:30.019Z,75.52
2023-01-28T12:50:13.370Z,75.53
2023-01-28T12:52:49.434Z,74.46
2023-01-28T12:55:30.747Z,75.40
2023-01-28T12:58:04.259Z,75.53
2023-01-28T13:00:40.362Z,75.65
2023-01-28T13:03:18.450Z,75.44
2023-01-28T13:05:59.785Z,75.79
2023-01-28T13:08:33.002Z,75.63
2023-01-28T13:11:13.645Z,75.96
2023-01-28T13:13:50.595Z,75.96
2023-01-28T13:16:36.048Z,76.42
2023-01-28T13:19:22.740Z,76.58
2023-01-28T13:22:14.794Z,75.88
2023-01-28T13:24:59.724Z,76.10
2023-01-28T13:27:35.450Z,75.79
2023-01-28T13:30:23.640Z,75.68
2023-01-28T13:32:58.341Z,75.88
2023-01-28T13:35:34.134Z,75.90
2023-01-28T13:38:16.560Z,75.80
2023-01-28T13:40:55.532Z,75.27
2023-01-28T13:43:38.241Z,75.76
2023-01-28T13:46:12.058Z,75.62
2023-01-28T13:48:59.124Z,76.11
2023-01-28T13:51:42.923Z,75.98
2023-01-28T13:54:20.183Z,75.99
2023-01-28T13:57:03.243Z,76.63
2023-01-28T13:59:45.895Z,76.04
2023-01-28T14:02:38.472Z,76.45
2023-01-28T14:05:32.150Z,76.35
2023-01-28T14:08:25.861Z,76.63
2023-01-28T14:11:13.841Z,76.35
2023-01-28T14:13:57.342Z,77.04
2023-01-28T14:16:35.309Z,76.36
2023-01-28T14:19:12.908Z,77.18
2023-01-28T14:21:45.739Z,77.34
2023-01-28T14:24:19.941Z,76.80
2023-01-28T14:26:58.571Z,76.46
2023-01-28T14:29:44.049Z,75.95
2023-01-28T14:32:18.011Z,76.43
2023-01-28T14:34:55.668Z,76.52
2023-01-28T14:37:32.797Z,76.59
2023-01-28T14:40:11.957Z,76.54
2023-01-28T14:42:48.880Z,76.82
2023-01-28T14:45:26.749Z,76.50
2023-01-28T14:48:21.244Z,76.73
2023-01-28T14:51:08.545Z,76.49
2023-01-28T14:54:00.524Z,74.09
2023-01-28T14:56:40.564Z,76.28
2023-01-28T14:59:23.038Z,76.61
2023-01-28T15:02:00.018Z,76.17
2023-01-28T15:04:33.847Z,76.26
2023-01-28T15:07:17.604Z,76.31
2023-01-28T15:10:04.979Z,76.27
2023-01-28T15:12:45.908Z,76.14
2023-01-28T15:15:23.105Z,76.20
2023-01-28T15:17:58.113Z,74.95
2023-01-28T15:20:32.949Z,76.15
2023-01-28T15:23:08.369Z,76.18
2023-01-28T15:25:41.386Z,76.21
2023-01-28T15:28:18.776Z,75.81
2023-01-28T15:30:52.969Z,76.14
2023-01-28T15:33:26.024Z,76.44
2023-01-28T15:35:59.790Z,75.93
2023-01-28T15:38:32.700Z,76.05
2023-01-28T15:41:09.728Z,75.92
2023-01-28T15:43:52.347Z,77.13
2023-01-28T15:46:28.589Z,76.79
2023-01-28T15:49:03.232Z,76.61
2023-01-28T15:51:37.281Z,76.73
2023-01-28T15:54:12.720Z,76.92
2023-01-28T15:56:51.079Z,76.14
2023-01-28T15:59:27.156Z,76.86
2023-01-28T16:02:20.959Z,76.67
2023-01-28T16:05:11.333Z,76.66
2023-01-28T16:07:45.485Z,76.88
2023-01-28T16:10:21.731Z,76.47
2023-01-28T16:13:02.274Z,76.48
2023-01-28T16:15:36.704Z,76.69
2023-01-28T16:18:21.552Z,76.16
2023-01-28T16:20:58.474Z,76.51
2023-01-28T16:23:31.403Z,76.60
2023-01-28T16:26:06.142Z,76.74
2023-01-28T16:28:38.977Z,77.08
2023-01-28T16:31:12.323Z,76.08
2023-01-28T16:33:45.374Z,76.27
2023-01-28T16:36:20.178Z,76.44
2023-01-28T16:38:52.809Z,76.46
2023-01-28T16:41:27.073Z,76.58
2023-01-28T16:44:01.209Z,76.45
2023-01-28T16:46:43.414Z,75.48
2023-01-28T16:49:18.488Z,76.95
2023-01-28T16:51:58.073Z,76.82
2023-01-28T16:54:35.913Z,76.61
2023-01-28T16:57:12.418Z,76.14
2023-01-28T16:59:49.823Z,76.82
2023-01-28T17:02:25.368Z,77.15
2023-01-28T17:04:58.239Z,75.82
2023-01-28T17:07:32.688Z,76.51
2023-01-28T17:10:09.139Z,77.06
2023-01-28T17:12:41.972Z,77.12
2023-01-28T17:15:16.196Z,76.80
2023-01-28T17:17:49.531Z,76.58
2023-01-28T17:20:22.498Z,76.34
2023-01-28T17:22:57.034Z,76.63
2023-01-28T17:25:32.225Z,76.18
2023-01-28T17:28:07.837Z,75.83
2023-01-28T17:30:41.830Z,75.79
2023-01-28T17:33:14.769Z,75.71
2023-01-28T17:35:48.863Z,75.07
2023-01-28T17:38:23.404Z,75.15
2023-01-28T17:41:03.643Z,75.71
2023-01-28T17:43:51.513Z,75.46
2023-01-28T17:46:27.189Z,75.11
2023-01-28T17:49:01.411Z,75.20
2023-01-28T17:51:34.285Z,75.41
2023-01-28T17:54:08.734Z,75.81
2023-01-28T17:56:41.564Z,75.16
2023-01-28T17:59:17.524Z,74.59
2023-01-28T18:01:50.902Z,75.15
2023-01-28T18:04:24.035Z,74.99
2023-01-28T18:06:57.924Z,74.79
2023-01-28T18:09:32.049Z,74.60
2023-01-28T18:12:05.520Z,74.78
2023-01-28T18:14:38.672Z,74.67
2023-01-28T18:17:11.824Z,74.89
2023-01-28T18:19:44.856Z,74.94
2023-01-28T18:22:17.397Z,74.73
2023-01-28T18:24:51.511Z,74.54
2023-01-28T18:27:24.472Z,74.81
2023-01-28T18:29:57.972Z,74.49
2023-01-28T18:32:32.233Z,74.90
2023-01-28T18:35:06.723Z,74.28
2023-01-28T18:37:39.328Z,74.51
2023-01-28T18:40:15.610Z,74.55
2023-01-28T18:42:48.388Z,74.66
2023-01-28T18:45:24.438Z,74.81
2023-01-28T18:48:02.009Z,74.46
2023-01-28T18:50:35.178Z,74.49
2023-01-28T18:53:14.724Z,74.55
2023-01-28T18:55:52.475Z,74.32
2023-01-28T18:58:25.646Z,74.37
2023-01-28T19:00:59.520Z,75.66
2023-01-28T19:03:32.318Z,75.22
2023-01-28T19:06:11.111Z,74.80
2023-01-28T19:08:44.089Z,75.00
2023-01-28T19:11:19.564Z,73.82
2023-01-28T19:13:55.221Z,74.25
2023-01-28T19:16:34.130Z,74.34
2023-01-28T19:19:11.603Z,74.23
2023-01-28T19:21:45.740Z,73.94
2023-01-28T19:24:18.941Z,74.57
2023-01-28T19:26:53.540Z,74.30
2023-01-28T19:29:29.537Z,73.95
2023-01-28T19:32:04.647Z,74.34
2023-01-28T19:34:37.865Z,74.76
2023-01-28T19:37:17.163Z,73.87
2023-01-28T19:39:50.241Z,74.13
2023-01-28T19:42:26.324Z,74.04
2023-01-28T19:45:04.179Z,74.00
2023-01-28T19:47:37.128Z,74.81
2023-01-28T19:50:10.424Z,73.94
2023-01-28T19:52:43.343Z,74.72
2023-01-28T19:55:16.742Z,73.89
2023-01-28T19:57:54.307Z,74.00
2023-01-28T20:00:32.318Z,74.04
2023-01-28T20:03:07.941Z,74.70
2023-01-28T20:05:43.298Z,74.04
2023-01-28T20:08:23.815Z,73.67
2023-01-28T20:11:03.048Z,73.96
2023-01-28T20:13:40.685Z,73.75
2023-01-28T20:16:19.470Z,73.97
2023-01-28T20:18:52.888Z,74.26
2023-01-28T20:21:26.848Z,73.77
2023-01-28T20:24:01.066Z,74.21
2023-01-28T20:26:34.785Z,74.52
2023-01-28T20:29:20.009Z,73.62
2023-01-28T20:32:13.486Z,73.33
2023-01-28T20:34:48.467Z,73.59
2023-01-28T20:37:21.562Z,73.80
2023-01-28T20:39:54.420Z,73.88
2023-01-28T20:42:30.431Z,73.36
2023-01-28T20:45:04.807Z,73.28
2023-01-28T20:47:37.725Z,73.54
2023-01-28T20:50:21.379Z,73.30
2023-01-28T20:52:54.355Z,73.66
2023-01-28T20:55:30.075Z,73.75
2023-01-28T20:58:02.879Z,73.55
2023-01-28T21:00:37.404Z,73.83
2023-01-28T21:03:17.440Z,73.28
2023-01-28T21:05:50.357Z,73.83
2023-01-28T21:08:23.154Z,73.47
2023-01-28T21:10:56.412Z,73.35
2023-01-28T21:13:29.178Z,73.35
2023-01-28T21:16:03.595Z,73.80
2023-01-28T21:18:36.705Z,73.24
2023-01-28T21:21:11.713Z,73.53
2023-01-28T21:23:44.265Z,73.47
2023-01-28T21:26:17.200Z,73.32
2023-01-28T21:28:49.877Z,73.37
2023-01-28T21:31:25.365Z,73.56
2023-01-28T21:34:01.112Z,73.24
2023-01-28T21:36:34.384Z,73.56
2023-01-28T21:39:07.157Z,73.69
2023-01-28T21:41:40.018Z,73.48
2023-01-28T21:44:12.990Z,73.77
2023-01-28T21:46:47.149Z,73.72
2023-01-28T21:49:22.101Z,73.83
2023-01-28T21:51:54.713Z,73.57
2023-01-28T21:54:27.463Z,73.61
2023-01-28T21:57:00.363Z,73.96
2023-01-28T21:59:33.146Z,73.77
2023-01-28T22:02:10.681Z,73.75
2023-01-28T22:04:44.611Z,73.67
2023-01-28T22:07:18.362Z,73.65
2023-01-28T22:09:52.382Z,74.28
2023-01-28T22:12:28.265Z,74.14
2023-01-28T22:15:01.114Z,73.66
2023-01-28T22:17:35.240Z,74.00
2023-01-28T22:20:11.232Z,74.13
2023-01-28T22:22:43.868Z,74.05
2023-01-28T22:25:16.483Z,74.40
2023-01-28T22:27:49.609Z,74.24
2023-01-28T22:30:22.306Z,73.93
2023-01-28T22:32:56.534Z,74.12
2023-01-28T22:35:29.375Z,74.09
2023-01-28T22:38:02.107Z,73.74
2023-01-28T22:40:37.897Z,73.56
2023-01-28T22:43:26.642Z,73.86
2023-01-28T22:46:11.805Z,74.76
2023-01-28T22:48:46.355Z,74.51
2023-01-28T22:51:20.231Z,75.31
2023-01-28T22:53:53.524Z,75.13
2023-01-28T22:56:47.050Z,75.04
2023-01-28T22:59:19.931Z,74.82
2023-01-28T23:01:52.827Z,74.63
2023-01-28T23:04:27.863Z,75.08
2023-01-28T23:07:00.919Z,74.62
2023-01-28T23:09:33.695Z,74.63
2023-01-28T23:12:06.935Z,74.66
2023-01-28T23:14:57.004Z,75.20
2023-01-28T23:17:47.120Z,74.93
2023-01-28T23:20:47.431Z,74.74
2023-01-28T23:23:37.667Z,74.98
2023-01-28T23:26:10.457Z,75.17
2023-01-28T23:28:43.091Z,75.32
2023-01-28T23:31:15.923Z,75.14
2023-01-28T23:33:48.752Z,74.70
2023-01-28T23:36:22.751Z,74.24
2023-01-28T23:38:55.556Z,74.63
2023-01-28T23:41:31.146Z,74.80
2023-01-28T23:44:04.096Z,73.91
2023-01-28T23:46:39.863Z,74.32
2023-01-28T23:49:12.686Z,75.21
2023-01-28T23:51:47.076Z,74.78
2023-01-28T23:54:19.850Z,74.71
2023-01-28T23:56:54.614Z,75.22
2023-01-28T23:59:27.320Z,74.93
